Other Surface Observations
Issued by NWS Great Falls, MT

Home | Current Version | Previous Version | Text Only | Print | Product List | Glossary On
Versions: 1 2 3 4 5 6 7 8 9 10 11 12 13 14 15 16 17 18 19 20 21 22 23 24 25 26 27 28 29 30 31 32 33 34 35 36 37 38 39 40 41 42 43 44 45 46 47 48 49 50
000
SXUS55 KTFX 230829
OSOTFX
AREA AWOS OBSERVATIONS
NATIONAL WEATHER SERVICE GREAT FALLS MT
0129 AM MST THU NOV 23 2017

METAR KPWD 230830Z AUTO 00000KT 10SM M02/M04 A2980 RMK PLENTYWOOD
METAR KPO1 230830Z AUTO 00000KT 9SM M01/M02 A2985 RMK POPLAR
METAR K1S3 230830Z AUTO 25006KT 15/04 A2993 RMK FORSYTH
METAR KS71 230830Z AUTO 24014G20KT 10SM 16/06 A2979 RMK CHINOOK
METAR K38S 230830Z AUTO 18010G16KT 10SM 11/03 A3008 RMK DEER LODGE
METAR K3U3 230830Z AUTO 18011G15KT 10SM 09/02 A3009 RMK ANACONDA
METAR K6S5 230830Z AUTO 16013KT 10SM 11/04 A3006 RMK HAMILTON
METAR KS59 230830Z AUTO 00000KT 1/2SM A2992 RMK LIBBY
METAR K88M 230830Z AUTO 10SM 12/08 A2988 RMK EUREKA



USA.gov is the U.S. government's official web portal to all federal, state and local government web resources and services.